Silver Creek, Georgia
Current Conditions -  °F | °C
As of 2:53 PM on Thursday 18 Dec 2014 (Local Time) from KRMG Reporting Station
Overcast Overcast  
Wind Chill: 47°   Ceiling: 4800
Heat Index: 47°   Visibility: 10mi
Dew Point: 33°   Wind: 3mph
Humidity: 59%   Direction: 330°NNW
Pressure: 30.13"   Gusts: NA
Location:  34.15°N, 85.14°W
Report Text: KRMG 181953Z AUTO 33003KT 10SM OVC048 08/01 A3013 RMK AO2 SLP203 T00830006
Loading
Personal Weather Stations






























Interactive Weather Map New forecast layout! Learn more

10-Day Weather Forecast

Advertisements
Track Severe Weather on mobile